sensor_id;sensor_type;location;lat;lon;timestamp;pressure;altitude;pressure_sealevel;temperature;humidity
64086;BME280;50333;47.436;21.390;2023-02-13T02:11:40;102765.59;;;0.61;62.29
64086;BME280;50333;47.436;21.390;2023-02-13T02:15:57;102773.91;;;0.24;62.55
64086;BME280;50333;47.436;21.390;2023-02-13T03:08:13;102798.12;;;0.61;62.46
64086;BME280;50333;47.436;21.390;2023-02-13T04:40:18;102782.19;;;0.86;64.28
64086;BME280;50333;47.436;21.390;2023-02-13T04:44:11;102782.03;;;1.07;63.69
64086;BME280;50333;47.436;21.390;2023-02-13T06:04:40;102823.84;;;0.80;63.95
64086;BME280;50333;47.436;21.390;2023-02-13T06:08:03;102824.31;;;0.45;64.32
64086;BME280;50333;47.436;21.390;2023-02-13T06:11:22;102820.25;;;0.32;64.87
64086;BME280;50333;47.436;21.390;2023-02-13T06:14:48;102818.56;;;0.82;63.68
64086;BME280;50333;47.436;21.390;2023-02-13T06:18:12;102810.59;;;0.65;64.26
64086;BME280;50333;47.436;21.390;2023-02-13T06:21:43;102816.28;;;0.79;63.90
64086;BME280;50333;47.436;21.390;2023-02-13T06:25:17;102816.28;;;0.79;63.99
64086;BME280;50333;47.436;21.390;2023-02-13T06:28:34;102829.38;;;0.85;63.69
64086;BME280;50333;47.436;21.390;2023-02-13T06:32:04;102819.50;;;1.00;63.10
64086;BME280;50333;47.436;21.390;2023-02-13T06:35:14;102830.03;;;0.97;62.85
64086;BME280;50333;47.436;21.390;2023-02-13T06:38:46;102831.94;;;0.95;63.16
64086;BME280;50333;47.436;21.390;2023-02-13T06:42:13;102829.75;;;1.20;62.50
64086;BME280;50333;47.436;21.390;2023-02-13T06:45:32;102833.03;;;1.02;63.06
64086;BME280;50333;47.436;21.390;2023-02-13T06:49:00;102838.78;;;0.46;65.41
64086;BME280;50333;47.436;21.390;2023-02-13T06:52:08;102835.31;;;1.25;63.34
64086;BME280;50333;47.436;21.390;2023-02-13T06:55:24;102830.81;;;1.46;62.34
64086;BME280;50333;47.436;21.390;2023-02-13T06:58:42;102822.59;;;1.80;61.68
64086;BME280;50333;47.436;21.390;2023-02-13T07:02:00;102831.41;;;1.78;62.04
64086;BME280;50333;47.436;21.390;2023-02-13T07:05:21;102829.19;;;1.45;63.03
64086;BME280;50333;47.436;21.390;2023-02-13T07:09:03;102829.41;;;2.27;61.41
64086;BME280;50333;47.436;21.390;2023-02-13T07:13:16;102841.00;;;2.41;61.27
64086;BME280;50333;47.436;21.390;2023-02-13T07:17:26;102839.59;;;2.64;60.41
64086;BME280;50333;47.436;21.390;2023-02-13T07:20:51;102838.19;;;3.06;59.90
64086;BME280;50333;47.436;21.390;2023-02-13T07:24:48;102838.84;;;3.26;58.95
64086;BME280;50333;47.436;21.390;2023-02-13T07:28:06;102844.53;;;3.12;59.86
64086;BME280;50333;47.436;21.390;2023-02-13T07:31:40;102841.22;;;3.19;59.24
64086;BME280;50333;47.436;21.390;2023-02-13T07:35:30;102839.41;;;3.38;58.81
64086;BME280;50333;47.436;21.390;2023-02-13T07:39:13;102845.06;;;3.68;57.63
64086;BME280;50333;47.436;21.390;2023-02-13T07:42:52;102843.56;;;3.91;57.66
64086;BME280;50333;47.436;21.390;2023-02-13T07:46:37;102833.16;;;4.18;57.18
64086;BME280;50333;47.436;21.390;2023-02-13T07:50:50;102837.44;;;4.43;56.54
64086;BME280;50333;47.436;21.390;2023-02-13T07:54:32;102844.78;;;4.81;54.94
64086;BME280;50333;47.436;21.390;2023-02-13T07:57:58;102847.03;;;5.00;54.14
64086;BME280;50333;47.436;21.390;2023-02-13T08:01:29;102844.13;;;5.03;53.58
64086;BME280;50333;47.436;21.390;2023-02-13T08:05:00;102849.44;;;4.85;54.20
64086;BME280;50333;47.436;21.390;2023-02-13T08:08:15;102848.94;;;4.57;54.99
64086;BME280;50333;47.436;21.390;2023-02-13T08:12:08;102857.50;;;4.49;54.70
64086;BME280;50333;47.436;21.390;2023-02-13T08:15:33;102854.88;;;4.41;55.11
64086;BME280;50333;47.436;21.390;2023-02-13T08:19:05;102852.94;;;4.43;55.40
64086;BME280;50333;47.436;21.390;2023-02-13T08:23:26;102850.56;;;4.07;56.11
64086;BME280;50333;47.436;21.390;2023-02-13T08:27:45;102842.44;;;3.94;57.10
64086;BME280;50333;47.436;21.390;2023-02-13T08:31:41;102845.59;;;4.14;57.34
64086;BME280;50333;47.436;21.390;2023-02-13T08:36:06;102848.72;;;4.42;56.83
64086;BME280;50333;47.436;21.390;2023-02-13T08:40:48;102843.94;;;4.64;56.46
64086;BME280;50333;47.436;21.390;2023-02-13T08:45:19;102851.97;;;4.52;56.01
64086;BME280;50333;47.436;21.390;2023-02-13T08:48:55;102851.38;;;4.75;56.11
64086;BME280;50333;47.436;21.390;2023-02-13T08:52:35;102846.87;;;4.94;55.39
64086;BME280;50333;47.436;21.390;2023-02-13T08:56:04;102844.13;;;5.03;55.30
64086;BME280;50333;47.436;21.390;2023-02-13T08:59:43;102846.22;;;5.24;54.89
64086;BME280;50333;47.436;21.390;2023-02-13T09:03:20;102843.44;;;5.34;54.31
64086;BME280;50333;47.436;21.390;2023-02-13T09:07:06;102836.47;;;5.51;54.40
64086;BME280;50333;47.436;21.390;2023-02-13T09:10:32;102840.31;;;5.63;53.74
64086;BME280;50333;47.436;21.390;2023-02-13T09:14:47;102825.72;;;5.71;53.77
64086;BME280;50333;47.436;21.390;2023-02-13T09:18:29;102832.12;;;5.91;53.29
64086;BME280;50333;47.436;21.390;2023-02-13T09:21:59;102822.22;;;5.55;53.61
64086;BME280;50333;47.436;21.390;2023-02-13T09:25:25;102830.88;;;5.87;52.90
64086;BME280;50333;47.436;21.390;2023-02-13T09:29:11;102825.50;;;5.97;52.49
64086;BME280;50333;47.436;21.390;2023-02-13T09:32:53;102824.47;;;5.66;53.06
64086;BME280;50333;47.436;21.390;2023-02-13T09:36:05;102825.63;;;6.03;52.57
64086;BME280;50333;47.436;21.390;2023-02-13T09:39:19;102833.75;;;5.92;52.44
64086;BME280;50333;47.436;21.390;2023-02-13T09:42:30;102830.28;;;5.60;54.13
64086;BME280;50333;47.436;21.390;2023-02-13T09:46:04;102833.31;;;4.91;55.24
64086;BME280;50333;47.436;21.390;2023-02-13T09:49:18;102830.81;;;5.47;54.29
64086;BME280;50333;47.436;21.390;2023-02-13T09:52:35;102819.78;;;6.10;53.17
64086;BME280;50333;47.436;21.390;2023-02-13T09:56:08;102830.88;;;5.87;53.22
64086;BME280;50333;47.436;21.390;2023-02-13T10:00:21;102830.34;;;6.00;53.13
64086;BME280;50333;47.436;21.390;2023-02-13T10:08:50;102822.87;;;6.05;53.07
64086;BME280;50333;47.436;21.390;2023-02-13T10:18:20;102817.50;;;6.15;53.96
64086;BME280;50333;47.436;21.390;2023-02-13T10:20:52;102807.97;;;6.38;53.53
64086;BME280;50333;47.436;21.390;2023-02-13T10:23:27;102800.31;;;6.22;53.81
64086;BME280;50333;47.436;21.390;2023-02-13T10:25:59;102802.34;;;6.03;53.80
64086;BME280;50333;47.436;21.390;2023-02-13T10:28:37;102798.50;;;6.46;53.05
64086;BME280;50333;47.436;21.390;2023-02-13T10:31:14;102796.09;;;6.21;53.99
64086;BME280;50333;47.436;21.390;2023-02-13T10:33:49;102794.78;;;6.71;52.77
64086;BME280;50333;47.436;21.390;2023-02-13T10:36:29;102796.41;;;6.72;53.51
64086;BME280;50333;47.436;21.390;2023-02-13T10:39:41;102793.84;;;6.18;55.07
64086;BME280;50333;47.436;21.390;2023-02-13T10:43:18;102783.38;;;6.95;53.42
64086;BME280;50333;47.436;21.390;2023-02-13T10:50:34;102771.94;;;7.05;53.24
64086;BME280;50333;47.436;21.390;2023-02-13T11:01:38;102767.50;;;7.28;51.44
64086;BME280;50333;47.436;21.390;2023-02-13T11:05:25;102754.59;;;7.20;51.70
64086;BME280;50333;47.436;21.390;2023-02-13T11:08:46;102757.50;;;6.72;53.12
64086;BME280;50333;47.436;21.390;2023-02-13T11:12:33;102752.09;;;7.27;52.46
64086;BME280;50333;47.436;21.390;2023-02-13T11:15:39;102737.78;;;7.16;52.63
64086;BME280;50333;47.436;21.390;2023-02-13T11:18:56;102747.03;;;6.80;53.23
64086;BME280;50333;47.436;21.390;2023-02-13T11:22:32;102746.91;;;6.59;54.17
64086;BME280;50333;47.436;21.390;2023-02-13T11:26:03;102732.00;;;6.61;53.18
64086;BME280;50333;47.436;21.390;2023-02-13T11:33:30;102727.75;;;6.83;53.38
64086;BME280;50333;47.436;21.390;2023-02-13T11:42:25;102717.44;;;6.37;53.62
64086;BME280;50333;47.436;21.390;2023-02-13T11:49:47;102720.50;;;6.64;53.15
64086;BME280;50333;47.436;21.390;2023-02-13T11:53:56;102714.91;;;6.52;53.19
64086;BME280;50333;47.436;21.390;2023-02-13T11:58:46;102718.91;;;6.39;53.29
64086;BME280;50333;47.436;21.390;2023-02-13T12:02:55;102712.25;;;6.37;54.58
64086;BME280;50333;47.436;21.390;2023-02-13T13:18:26;102639.87;;;6.20;55.67
64086;BME280;50333;47.436;21.390;2023-02-13T15:23:18;102602.41;;;5.62;58.88
64086;BME280;50333;47.436;21.390;2023-02-13T15:26:00;102604.47;;;5.98;58.20
64086;BME280;50333;47.436;21.390;2023-02-13T15:36:54;102600.81;;;5.84;58.35
64086;BME280;50333;47.436;21.390;2023-02-13T15:40:29;102600.06;;;5.52;59.19
64086;BME280;50333;47.436;21.390;2023-02-13T15:54:55;102606.88;;;5.99;58.28
64086;BME280;50333;47.436;21.390;2023-02-13T15:59:13;102592.44;;;6.20;57.70
64086;BME280;50333;47.436;21.390;2023-02-13T16:03:21;102597.22;;;5.85;58.46
64086;BME280;50333;47.436;21.390;2023-02-13T16:07:11;102590.13;;;6.10;58.14
64086;BME280;50333;47.436;21.390;2023-02-13T16:10:44;102592.00;;;5.93;58.23
64086;BME280;50333;47.436;21.390;2023-02-13T16:18:18;102579.41;;;6.28;57.05
64086;BME280;50333;47.436;21.390;2023-02-13T16:27:25;102570.13;;;6.19;56.96
64086;BME280;50333;47.436;21.390;2023-02-13T16:31:05;102584.84;;;5.95;57.47
64086;BME280;50333;47.436;21.390;2023-02-13T16:34:49;102578.06;;;5.71;58.32
64086;BME280;50333;47.436;21.390;2023-02-13T16:38:39;102580.78;;;5.32;59.48
64086;BME280;50333;47.436;21.390;2023-02-13T16:42:19;102571.63;;;5.21;59.34
64086;BME280;50333;47.436;21.390;2023-02-13T16:45:50;102578.25;;;5.46;58.87
64086;BME280;50333;47.436;21.390;2023-02-13T16:52:48;102564.94;;;4.56;61.96
64086;BME280;50333;47.436;21.390;2023-02-13T16:56:00;102556.72;;;4.52;62.28
64086;BME280;50333;47.436;21.390;2023-02-13T16:59:59;102555.94;;;4.35;62.80
64086;BME280;50333;47.436;21.390;2023-02-13T17:03:54;102559.34;;;4.83;61.28
64086;BME280;50333;47.436;21.390;2023-02-13T17:08:21;102553.56;;;4.17;63.33
64086;BME280;50333;47.436;21.390;2023-02-13T17:36:11;102541.87;;;4.85;61.32
64086;BME280;50333;47.436;21.390;2023-02-13T17:40:45;102536.41;;;4.88;61.52
64086;BME280;50333;47.436;21.390;2023-02-13T17:44:33;102540.31;;;4.84;61.93
64086;BME280;50333;47.436;21.390;2023-02-13T17:49:05;102533.22;;;4.70;61.89
64086;BME280;50333;47.436;21.390;2023-02-13T17:53:23;102529.06;;;5.00;61.39
64086;BME280;50333;47.436;21.390;2023-02-13T17:56:44;102522.25;;;4.68;62.45
64086;BME280;50333;47.436;21.390;2023-02-13T18:01:00;102517.87;;;4.68;62.36
64086;BME280;50333;47.436;21.390;2023-02-13T18:37:37;102503.72;;;4.08;65.00
64086;BME280;50333;47.436;21.390;2023-02-13T18:41:03;102502.53;;;4.36;64.16
64086;BME280;50333;47.436;21.390;2023-02-13T18:49:41;102497.69;;;4.41;64.15
64086;BME280;50333;47.436;21.390;2023-02-13T18:53:46;102480.94;;;4.20;64.99
64086;BME280;50333;47.436;21.390;2023-02-13T18:57:22;102484.66;;;4.18;65.14
64086;BME280;50333;47.436;21.390;2023-02-13T19:00:56;102476.19;;;4.40;64.59
64086;BME280;50333;47.436;21.390;2023-02-13T19:05:27;102486.53;;;4.40;64.43
64086;BME280;50333;47.436;21.390;2023-02-13T19:11:05;102468.88;;;4.60;63.76
64086;BME280;50333;47.436;21.390;2023-02-13T19:15:36;102473.28;;;4.43;64.17
64086;BME280;50333;47.436;21.390;2023-02-13T19:19:57;102458.72;;;4.50;64.34
64086;BME280;50333;47.436;21.390;2023-02-13T19:24:00;102454.72;;;4.48;64.78
64086;BME280;50333;47.436;21.390;2023-02-13T19:28:07;102441.34;;;4.36;64.83
64086;BME280;50333;47.436;21.390;2023-02-13T19:32:10;102440.31;;;4.53;64.03
64086;BME280;50333;47.436;21.390;2023-02-13T19:36:04;102433.13;;;4.32;64.90
64086;BME280;50333;47.436;21.390;2023-02-13T19:40:11;102440.06;;;4.71;63.66
64086;BME280;50333;47.436;21.390;2023-02-13T19:43:12;102448.34;;;4.90;62.87
64086;BME280;50333;47.436;21.390;2023-02-13T19:47:06;102448.84;;;4.85;62.67
64086;BME280;50333;47.436;21.390;2023-02-13T19:50:40;102443.47;;;4.72;63.20
64086;BME280;50333;47.436;21.390;2023-02-13T19:54:10;102437.53;;;4.63;63.73
64086;BME280;50333;47.436;21.390;2023-02-13T19:58:37;102438.53;;;4.54;63.92
64086;BME280;50333;47.436;21.390;2023-02-13T20:02:34;102435.28;;;4.60;63.68
64086;BME280;50333;47.436;21.390;2023-02-13T20:06:31;102453.09;;;4.39;63.99
64086;BME280;50333;47.436;21.390;2023-02-13T20:10:45;102452.53;;;4.60;63.53
64086;BME280;50333;47.436;21.390;2023-02-13T20:13:53;102433.56;;;3.96;65.75
64086;BME280;50333;47.436;21.390;2023-02-13T20:17:18;102426.25;;;4.17;65.03
64086;BME280;50333;47.436;21.390;2023-02-13T20:20:40;102419.47;;;4.24;64.53
64086;BME280;50333;47.436;21.390;2023-02-13T20:24:07;102429.97;;;4.14;64.63
64086;BME280;50333;47.436;21.390;2023-02-13T20:27:14;102421.06;;;4.25;64.71
64086;BME280;50333;47.436;21.390;2023-02-13T20:31:18;102426.87;;;4.27;64.39
64086;BME280;50333;47.436;21.390;2023-02-13T20:34:54;102424.34;;;4.10;64.58
64086;BME280;50333;47.436;21.390;2023-02-13T20:38:59;102421.97;;;4.40;63.63
64086;BME280;50333;47.436;21.390;2023-02-13T20:42:12;102441.56;;;4.58;62.87
64086;BME280;50333;47.436;21.390;2023-02-13T20:45:29;102435.41;;;4.67;62.72
64086;BME280;50333;47.436;21.390;2023-02-13T20:48:59;102430.25;;;4.90;61.92
64086;BME280;50333;47.436;21.390;2023-02-13T20:53:16;102446.03;;;4.72;61.99
64086;BME280;50333;47.436;21.390;2023-02-13T20:57:13;102460.56;;;4.73;61.68
64086;BME280;50333;47.436;21.390;2023-02-13T20:59:54;102454.19;;;4.52;62.03
64086;BME280;50333;47.436;21.390;2023-02-13T21:02:27;102464.44;;;4.29;62.86
64086;BME280;50333;47.436;21.390;2023-02-13T21:05:16;102467.50;;;4.33;62.57
64086;BME280;50333;47.436;21.390;2023-02-13T21:08:03;102463.44;;;4.39;62.52
64086;BME280;50333;47.436;21.390;2023-02-13T21:10:38;102482.09;;;4.09;62.82
64086;BME280;50333;47.436;21.390;2023-02-13T21:13:25;102478.75;;;3.92;63.83
64086;BME280;50333;47.436;21.390;2023-02-13T21:16:32;102465.28;;;4.22;62.63
64086;BME280;50333;47.436;21.390;2023-02-13T21:19:58;102467.22;;;4.20;62.45
64086;BME280;50333;47.436;21.390;2023-02-13T21:23:40;102466.53;;;4.34;62.03
64086;BME280;50333;47.436;21.390;2023-02-13T21:27:35;102470.78;;;4.10;62.29
64086;BME280;50333;47.436;21.390;2023-02-13T21:31:19;102477.25;;;4.14;62.50
64086;BME280;50333;47.436;21.390;2023-02-13T21:34:21;102477.75;;;4.02;62.71
64086;BME280;50333;47.436;21.390;2023-02-13T21:37:42;102473.22;;;4.04;62.66
64086;BME280;50333;47.436;21.390;2023-02-13T21:54:06;102436.03;;;3.32;65.77
64086;BME280;50333;47.436;21.390;2023-02-13T21:57:58;102453.37;;;2.81;66.55
64086;BME280;50333;47.436;21.390;2023-02-13T22:02:06;102452.97;;;3.10;64.67
64086;BME280;50333;47.436;21.390;2023-02-13T22:05:55;102446.84;;;3.19;64.76
64086;BME280;50333;47.436;21.390;2023-02-13T22:09:29;102443.75;;;2.91;65.54
64086;BME280;50333;47.436;21.390;2023-02-13T22:13:25;102444.28;;;3.28;64.81
64086;BME280;50333;47.436;21.390;2023-02-13T22:16:45;102445.66;;;2.97;65.44
64086;BME280;50333;47.436;21.390;2023-02-13T22:20:39;102436.66;;;3.10;64.60
64086;BME280;50333;47.436;21.390;2023-02-13T22:24:19;102432.59;;;2.91;64.97
64086;BME280;50333;47.436;21.390;2023-02-13T22:27:46;102420.84;;;2.80;65.04
64086;BME280;50333;47.436;21.390;2023-02-13T22:32:28;102413.72;;;2.66;66.50
64086;BME280;50333;47.436;21.390;2023-02-13T22:36:13;102409.19;;;2.59;66.78
64086;BME280;50333;47.436;21.390;2023-02-13T22:39:44;102408.47;;;2.75;66.90
64086;BME280;50333;47.436;21.390;2023-02-13T22:43:54;102402.03;;;2.88;66.43
64086;BME280;50333;47.436;21.390;2023-02-13T22:48:16;102394.22;;;2.55;66.04
64086;BME280;50333;47.436;21.390;2023-02-13T22:52:39;102400.47;;;2.44;66.75
64086;BME280;50333;47.436;21.390;2023-02-13T22:56:38;102393.97;;;2.74;65.88
64086;BME280;50333;47.436;21.390;2023-02-13T23:00:11;102404.41;;;2.73;66.61
64086;BME280;50333;47.436;21.390;2023-02-13T23:04:06;102400.56;;;2.69;66.69
64086;BME280;50333;47.436;21.390;2023-02-13T23:08:12;102389.81;;;2.90;66.00
64086;BME280;50333;47.436;21.390;2023-02-13T23:11:49;102390.91;;;2.79;66.07
64086;BME280;50333;47.436;21.390;2023-02-13T23:15:53;102400.25;;;2.80;66.09
64086;BME280;50333;47.436;21.390;2023-02-13T23:20:27;102393.50;;;2.79;66.10
64086;BME280;50333;47.436;21.390;2023-02-13T23:24:28;102400.09;;;2.90;65.71
64086;BME280;50333;47.436;21.390;2023-02-13T23:28:42;102397.34;;;2.99;65.30
64086;BME280;50333;47.436;21.390;2023-02-13T23:32:26;102395.34;;;2.44;66.19
64086;BME280;50333;47.436;21.390;2023-02-13T23:36:21;102399.94;;;2.83;65.23
64086;BME280;50333;47.436;21.390;2023-02-13T23:40:08;102395.75;;;2.98;64.75
64086;BME280;50333;47.436;21.390;2023-02-13T23:44:08;102404.03;;;2.59;65.51
64086;BME280;50333;47.436;21.390;2023-02-13T23:48:15;102389.59;;;2.67;65.38
64086;BME280;50333;47.436;21.390;2023-02-13T23:52:14;102385.09;;;2.77;64.94
64086;BME280;50333;47.436;21.390;2023-02-13T23:56:16;102390.53;;;2.49;65.91
